Time;durP1;ratioP1;P1;durP2;ratioP2;P2;SDS_P1;SDS_P2;PMS_P1;PMS_P2;Temp;Humidity;BMP_temperature;BMP_pressure;BME280_temperature;BME280_humidity;BME280_pressure;Samples;Min_cycle;Max_cycle;Signal;HPM_P1;HPM_P2
2022/05/29 00:01:50;;;;;;;7.47;1.50;;;12.40;99.90;;;;;;5017080;28;20046;-62
2022/05/29 00:04:17;;;;;;;4.45;1.08;;;12.40;99.90;;;;;;5017899;28;20402;-63
2022/05/29 00:06:45;;;;;;;8.38;1.50;;;12.50;99.90;;;;;;5016868;28;20390;-61
2022/05/29 00:09:16;;;;;;;11.10;1.80;;;12.50;99.90;;;;;;5017791;28;20394;-62
2022/05/29 00:11:42;;;;;;;4.78;0.95;;;12.60;99.90;;;;;;5017048;28;20026;-62
2022/05/29 00:14:08;;;;;;;5.05;1.10;;;12.60;99.90;;;;;;5017699;28;20038;-62
2022/05/29 00:16:34;;;;;;;6.15;1.30;;;12.60;99.90;;;;;;5018022;28;20125;-61
2022/05/29 00:19:00;;;;;;;4.72;0.93;;;12.40;99.90;;;;;;5016912;28;20092;-61
2022/05/29 00:21:28;;;;;;;5.72;1.08;;;12.40;99.90;;;;;;5017527;28;20041;-61
2022/05/29 00:23:53;;;;;;;6.20;0.93;;;12.40;99.90;;;;;;5017611;28;20033;-62
2022/05/29 00:26:20;;;;;;;6.43;1.10;;;12.40;99.90;;;;;;5017377;28;20041;-60
2022/05/29 00:28:46;;;;;;;4.03;1.30;;;12.50;99.90;;;;;;5017453;28;20045;-61
2022/05/29 00:31:13;;;;;;;7.82;1.30;;;12.40;99.90;;;;;;5017505;28;20113;-62
2022/05/29 00:33:40;;;;;;;6.93;1.20;;;12.50;99.90;;;;;;5017412;28;20404;-61
2022/05/29 00:36:11;;;;;;;6.75;1.58;;;12.50;99.90;;;;;;5017346;28;20022;-62
2022/05/29 00:38:39;;;;;;;5.43;0.98;;;12.60;99.90;;;;;;5016627;28;20022;-62
2022/05/29 00:41:31;;;;;;;6.63;0.95;;;12.70;99.90;;;;;;5017342;28;20073;-65
2022/05/29 00:44:15;;;;;;;5.57;1.00;;;12.70;99.90;;;;;;5017794;28;20034;-62
2022/05/29 00:46:46;;;;;;;5.57;1.25;;;12.60;99.90;;;;;;5017599;28;20030;-61
2022/05/29 00:49:14;;;;;;;5.38;1.00;;;12.60;99.90;;;;;;5017209;28;20176;-61
2022/05/29 00:51:51;;;;;;;4.88;1.10;;;12.60;99.90;;;;;;5017062;28;20022;-61
2022/05/29 00:54:17;;;;;;;7.43;0.93;;;12.50;99.90;;;;;;5017246;28;20030;-61
2022/05/29 00:56:44;;;;;;;5.50;0.95;;;12.50;99.90;;;;;;5016339;28;20034;-62
2022/05/29 00:59:25;;;;;;;6.80;1.23;;;12.50;99.90;;;;;;5000321;28;20450;-62
2022/05/29 01:01:52;;;;;;;4.30;0.90;;;12.50;99.90;;;;;;5016922;28;20046;-61
2022/05/29 01:04:18;;;;;;;7.82;1.38;;;12.40;99.90;;;;;;5016388;28;20041;-61
2022/05/29 01:06:44;;;;;;;4.20;1.10;;;12.30;99.90;;;;;;5016620;28;20283;-61
2022/05/29 01:09:11;;;;;;;5.72;1.20;;;12.20;99.90;;;;;;5016419;28;20026;-61
2022/05/29 01:12:00;;;;;;;5.75;1.10;;;12.20;99.90;;;;;;5016948;28;20030;-61
2022/05/29 01:14:32;;;;;;;5.15;1.15;;;12.10;99.90;;;;;;5011024;28;20040;-61
2022/05/29 01:17:32;;;;;;;5.50;1.00;;;12.00;99.90;;;;;;5017187;28;20080;-61
2022/05/29 01:20:16;;;;;;;4.10;1.10;;;12.00;99.90;;;;;;5020967;28;20045;-62
2022/05/29 01:23:20;;;;;;;8.40;1.40;;;12.00;99.90;;;;;;5020827;28;20033;-61
2022/05/29 01:25:48;;;;;;;;;;;12.00;99.90;;;;;;5021321;28;20041;-62
2022/05/29 01:28:32;;;;;;;4.88;1.33;;;12.00;99.90;;;;;;5020120;28;19913;-62
2022/05/29 01:31:05;;;;;;;5.82;1.40;;;11.90;99.90;;;;;;5021344;28;20038;-62
2022/05/29 01:33:40;;;;;;;5.10;1.40;;;11.80;99.90;;;;;;5019948;28;20121;-62
2022/05/29 01:36:29;;;;;;;5.70;1.25;;;11.90;99.90;;;;;;5020609;28;20041;-61
2022/05/29 01:39:00;;;;;;;7.15;1.30;;;11.90;99.90;;;;;;5019855;28;20034;-63
2022/05/29 01:41:48;;;;;;;7.63;1.42;;;12.00;99.90;;;;;;5020726;28;20038;-62
2022/05/29 01:44:49;;;;;;;8.07;1.52;;;12.10;99.90;;;;;;5020593;28;20100;-61
2022/05/29 01:47:19;;;;;;;4.90;1.40;;;12.30;99.90;;;;;;5020344;28;20034;-63
2022/05/29 01:49:50;;;;;;;4.95;1.02;;;12.40;99.90;;;;;;5020725;28;20323;-62
2022/05/29 01:52:39;;;;;;;4.88;0.90;;;12.40;99.90;;;;;;5020611;28;20052;-62
2022/05/29 01:55:11;;;;;;;4.30;1.13;;;12.40;99.90;;;;;;5021152;28;20382;-61
2022/05/29 01:57:42;;;;;;;2.83;0.82;;;12.50;99.90;;;;;;5020273;28;20026;-60
2022/05/29 02:00:17;;;;;;;3.90;1.20;;;12.50;99.90;;;;;;5020166;28;20026;-60
2022/05/29 02:03:13;;;;;;;3.83;1.10;;;12.60;99.90;;;;;;5020324;28;20121;-60
2022/05/29 02:06:04;;;;;;;4.18;1.40;;;12.60;99.90;;;;;;5020151;28;20353;-61
2022/05/29 02:08:36;;;;;;;3.25;1.10;;;12.50;99.90;;;;;;5020009;28;20099;-61
2022/05/29 02:11:09;;;;;;;5.25;1.38;;;12.60;99.90;;;;;;5020145;28;20137;-61
2022/05/29 02:13:53;;;;;;;4.03;1.40;;;12.50;99.90;;;;;;5020134;28;20053;-60
2022/05/29 02:16:40;;;;;;;3.10;1.20;;;12.60;99.90;;;;;;5020210;28;20030;-61
2022/05/29 02:19:28;;;;;;;4.38;1.50;;;12.60;99.90;;;;;;5020166;28;20030;-61
2022/05/29 02:22:02;;;;;;;4.22;1.33;;;12.60;99.90;;;;;;5019800;28;20042;-60
2022/05/29 02:24:37;;;;;;;3.38;1.23;;;12.50;99.90;;;;;;5019893;28;20049;-61
2022/05/29 02:27:06;;;;;;;4.05;1.13;;;12.60;99.90;;;;;;5018898;28;20038;-61
2022/05/29 02:29:33;;;;;;;4.38;1.30;;;12.60;99.90;;;;;;5019244;28;20022;-61
2022/05/29 02:32:21;;;;;;;3.85;1.23;;;12.70;99.90;;;;;;5019659;28;20030;-61
2022/05/29 02:35:09;;;;;;;3.88;1.00;;;12.70;99.90;;;;;;5018869;28;20038;-61
2022/05/29 02:38:02;;;;;;;4.47;1.40;;;12.60;99.90;;;;;;5019573;28;20026;-61
2022/05/29 02:40:48;;;;;;;3.20;0.98;;;12.60;99.90;;;;;;5019499;28;20088;-62
2022/05/29 02:43:19;;;;;;;3.20;0.90;;;12.70;99.90;;;;;;5018740;28;20057;-62
2022/05/29 02:46:17;;;;;;;3.63;1.08;;;12.70;99.90;;;;;;5019431;28;20108;-62
2022/05/29 02:48:49;;;;;;;4.65;0.80;;;12.80;99.90;;;;;;5018582;28;20459;-61
2022/05/29 02:51:39;;;;;;;3.83;1.00;;;12.80;99.90;;;;;;5018651;28;20034;-61
2022/05/29 02:54:05;;;;;;;2.60;0.90;;;12.80;99.90;;;;;;5019310;28;20110;-61
2022/05/29 02:56:31;;;;;;;2.97;0.90;;;12.80;99.90;;;;;;5019200;28;20128;-61
2022/05/29 02:58:59;;;;;;;3.60;0.90;;;12.80;99.90;;;;;;5018439;28;20054;-60
2022/05/29 03:01:38;;;;;;;2.38;0.70;;;12.80;99.90;;;;;;5018895;28;20071;-61
2022/05/29 03:04:10;;;;;;;1.55;0.70;;;12.80;99.90;;;;;;5019058;28;20045;-62
2022/05/29 03:06:52;;;;;;;4.43;1.15;;;12.70;99.90;;;;;;5018216;28;20041;-61
2022/05/29 03:09:42;;;;;;;3.88;0.80;;;12.70;99.90;;;;;;5018838;28;20034;-62
2022/05/29 03:12:28;;;;;;;7.85;1.15;;;12.60;99.90;;;;;;5001849;28;20033;-61
2022/05/29 03:15:13;;;;;;;3.22;0.90;;;12.70;99.90;;;;;;5018848;28;20041;-62
2022/05/29 03:17:45;;;;;;;3.60;1.20;;;12.60;99.90;;;;;;5018086;28;20302;-62
2022/05/29 03:20:36;;;;;;;4.05;1.20;;;12.40;99.90;;;;;;5018869;28;20034;-60
2022/05/29 03:23:13;;;;;;;2.80;0.90;;;12.30;99.90;;;;;;5018709;28;20030;-61
2022/05/29 03:25:44;;;;;;;5.22;1.15;;;12.30;99.90;;;;;;5017791;28;20097;-60
2022/05/29 03:28:46;;;;;;;4.15;1.30;;;12.10;99.90;;;;;;5017778;28;20033;-60
2022/05/29 03:31:17;;;;;;;3.20;0.88;;;12.10;99.90;;;;;;5017890;28;20038;-60
2022/05/29 03:33:46;;;;;;;4.60;0.95;;;12.10;99.90;;;;;;5018591;28;20044;-60
2022/05/29 03:36:15;;;;;;;5.05;1.00;;;12.00;99.90;;;;;;5017584;28;20169;-60
2022/05/29 03:38:41;;;;;;;4.20;1.10;;;11.90;99.90;;;;;;5017637;28;20275;-60
2022/05/29 03:41:33;;;;;;;6.15;1.10;;;11.80;99.90;;;;;;5018086;28;20337;-60
2022/05/29 03:43:59;;;;;;;6.53;1.25;;;11.80;99.90;;;;;;5017597;28;20030;-61
2022/05/29 03:46:25;;;;;;;5.25;1.20;;;11.70;99.90;;;;;;5017507;28;20052;-60
2022/05/29 03:48:51;;;;;;;6.47;1.30;;;11.70;99.90;;;;;;5017499;28;20063;-61
2022/05/29 03:51:17;;;;;;;4.88;1.00;;;11.70;99.90;;;;;;5017450;28;20124;-61
2022/05/29 03:53:43;;;;;;;8.00;1.45;;;11.70;99.90;;;;;;5018132;28;20113;-61
2022/05/29 03:56:09;;;;;;;6.93;1.42;;;11.80;99.90;;;;;;5018132;28;20122;-61
2022/05/29 03:58:35;;;;;;;4.70;1.40;;;11.90;99.90;;;;;;5017169;28;20040;-61
2022/05/29 04:01:01;;;;;;;8.10;1.15;;;12.00;99.90;;;;;;5017596;28;20046;-61
2022/05/29 04:03:26;;;;;;;6.13;1.30;;;12.10;99.90;;;;;;5018021;28;20033;-61
2022/05/29 04:05:53;;;;;;;6.28;1.50;;;12.30;99.90;;;;;;5017984;28;20034;-61
2022/05/29 04:13:50;;;;;;;6.00;1.40;;;12.40;99.90;;;;;;5017940;28;20034;-61
2022/05/29 04:16:16;;;;;;;5.55;1.48;;;12.50;99.90;;;;;;5018241;28;20033;-61
2022/05/29 04:18:42;;;;;;;3.42;1.10;;;12.50;99.90;;;;;;5017771;28;20060;-60
2022/05/29 04:21:09;;;;;;;5.72;0.95;;;12.50;99.90;;;;;;5000530;28;20045;-61
2022/05/29 04:23:35;;;;;;;9.75;1.50;;;12.50;99.90;;;;;;5000623;28;20080;-61
2022/05/29 04:26:01;;;;;;;7.85;1.52;;;12.40;99.90;;;;;;5000643;28;20025;-60
2022/05/29 04:28:27;;;;;;;3.78;1.30;;;12.40;99.90;;;;;;5016855;28;20124;-60
2022/05/29 04:30:52;;;;;;;6.47;1.40;;;12.40;99.90;;;;;;5017650;28;20092;-60
2022/05/29 04:33:18;;;;;;;5.85;1.42;;;12.40;99.90;;;;;;5017994;28;20030;-61
2022/05/29 04:35:50;;;;;;;5.20;1.10;;;12.30;99.90;;;;;;5017006;28;20049;-60
2022/05/29 04:38:17;;;;;;;4.25;1.17;;;12.30;99.90;;;;;;5016719;28;20402;-60
2022/05/29 04:40:43;;;;;;;5.80;1.30;;;12.30;99.90;;;;;;5017388;28;20045;-61
2022/05/29 04:43:11;;;;;;;7.60;1.45;;;12.20;99.90;;;;;;5016531;28;20506;-60
2022/05/29 04:45:41;;;;;;;4.50;1.40;;;12.20;99.90;;;;;;5017294;28;20036;-60
2022/05/29 04:48:07;;;;;;;6.18;1.05;;;12.20;99.90;;;;;;5017232;28;20033;-60
2022/05/29 04:50:34;;;;;;;4.80;1.23;;;12.10;99.90;;;;;;5017268;28;20462;-60
2022/05/29 04:53:00;;;;;;;5.82;1.58;;;12.10;99.90;;;;;;5016037;28;20402;-61
2022/05/29 04:55:26;;;;;;;6.40;1.55;;;12.00;99.90;;;;;;5000256;28;20038;-61
2022/05/29 04:57:52;;;;;;;4.80;1.50;;;12.00;99.90;;;;;;5000183;28;20461;-61
2022/05/29 05:00:18;;;;;;;5.30;1.80;;;11.80;99.90;;;;;;5017001;28;20041;-63
2022/05/29 05:02:44;;;;;;;7.90;1.90;;;11.80;99.90;;;;;;5016422;28;20057;-62
2022/05/29 05:05:11;;;;;;;3.97;1.83;;;11.70;99.90;;;;;;5017122;28;20042;-61
2022/05/29 05:07:37;;;;;;;5.57;1.65;;;11.70;99.90;;;;;;5017025;28;20099;-62
2022/05/29 05:10:11;;;;;;;6.43;1.58;;;11.70;99.90;;;;;;5016305;28;20029;-61
2022/05/29 05:12:38;;;;;;;4.85;1.55;;;11.80;99.90;;;;;;4999923;28;20022;-61
2022/05/29 05:15:04;;;;;;;4.80;1.38;;;11.80;99.90;;;;;;5017132;28;20065;-62
2022/05/29 05:17:30;;;;;;;3.30;1.42;;;11.90;99.90;;;;;;5016207;28;20069;-62
2022/05/29 05:19:56;;;;;;;8.15;1.80;;;11.90;99.90;;;;;;4999986;28;20071;-62
2022/05/29 05:22:22;;;;;;;7.35;1.65;;;12.00;99.90;;;;;;5016102;28;20113;-63
2022/05/29 05:24:49;;;;;;;4.93;1.20;;;12.10;99.90;;;;;;5017134;28;20044;-62
2022/05/29 05:27:15;;;;;;;5.15;1.60;;;12.20;99.90;;;;;;5016092;28;20044;-62
2022/05/29 05:29:41;;;;;;;5.18;1.30;;;12.30;99.90;;;;;;4999887;28;20034;-62
2022/05/29 05:32:07;;;;;;;4.00;1.45;;;12.20;99.90;;;;;;5017102;28;20124;-62
2022/05/29 05:34:33;;;;;;;5.22;1.52;;;12.20;99.90;;;;;;5016863;28;20322;-62
2022/05/29 05:36:59;;;;;;;5.90;1.60;;;12.20;99.90;;;;;;4999767;28;20068;-62
2022/05/29 05:39:25;;;;;;;5.45;1.40;;;12.20;99.90;;;;;;5016851;28;20056;-61
2022/05/29 05:41:50;;;;;;;5.25;1.40;;;12.20;99.90;;;;;;5016022;28;20424;-63
2022/05/29 05:44:16;;;;;;;3.10;1.20;;;12.20;99.90;;;;;;5016120;28;20072;-61
2022/05/29 05:46:47;;;;;;;6.15;1.40;;;12.30;99.90;;;;;;5015929;28;20294;-60
2022/05/29 05:49:16;;;;;;;7.32;1.38;;;12.50;99.90;;;;;;4983676;28;20065;-62
2022/05/29 05:51:42;;;;;;;5.38;1.40;;;12.50;99.90;;;;;;5015944;28;20389;-61
2022/05/29 05:54:08;;;;;;;4.28;1.63;;;12.50;99.90;;;;;;4999637;28;20034;-61
2022/05/29 05:56:34;;;;;;;6.63;1.60;;;12.60;99.90;;;;;;5016636;28;20037;-60
2022/05/29 05:59:00;;;;;;;6.22;1.80;;;12.70;99.90;;;;;;5015935;28;20036;-62
2022/05/29 06:01:26;;;;;;;6.55;1.70;;;13.00;99.90;;;;;;5015921;28;20053;-62
2022/05/29 06:03:52;;;;;;;2.90;1.15;;;13.30;99.90;;;;;;5016621;28;20113;-62
2022/05/29 06:06:17;;;;;;;6.93;1.83;;;13.50;99.90;;;;;;5019425;28;20048;-61
2022/05/29 06:08:43;;;;;;;5.38;1.20;;;13.70;99.90;;;;;;5019550;28;20034;-62
2022/05/29 06:11:09;;;;;;;5.45;1.20;;;13.90;99.90;;;;;;5019664;28;20026;-61
2022/05/29 06:13:35;;;;;;;4.65;1.15;;;14.00;99.90;;;;;;5020107;28;20034;-60
2022/05/29 06:16:05;;;;;;;3.60;1.00;;;14.30;99.90;;;;;;5019403;28;20022;-61
2022/05/29 06:18:31;;;;;;;4.70;1.13;;;14.30;99.90;;;;;;5019929;28;20038;-61
2022/05/29 06:20:59;;;;;;;5.00;0.93;;;14.30;99.90;;;;;;5019230;28;20118;-61
2022/05/29 06:23:24;;;;;;;5.80;1.05;;;14.40;99.90;;;;;;5019844;28;20033;-60
2022/05/29 06:25:50;;;;;;;3.80;0.73;;;14.20;99.90;;;;;;5019798;28;20044;-61
2022/05/29 06:28:16;;;;;;;2.92;0.80;;;14.20;99.90;;;;;;5018984;28;20405;-61
2022/05/29 06:30:42;;;;;;;5.38;0.98;;;14.00;99.90;;;;;;5019036;28;20032;-61
2022/05/29 06:33:07;;;;;;;4.03;0.90;;;14.00;99.90;;;;;;5002714;28;20054;-61
2022/05/29 06:35:33;;;;;;;4.85;1.30;;;14.10;99.90;;;;;;5019673;28;20054;-61
2022/05/29 06:37:59;;;;;;;4.00;1.20;;;14.20;99.90;;;;;;5019575;28;20033;-61
2022/05/29 06:40:25;;;;;;;3.78;1.30;;;14.30;99.90;;;;;;5002462;28;20032;-62
2022/05/29 06:42:51;;;;;;;5.32;1.00;;;14.40;99.90;;;;;;5019537;28;20112;-61
2022/05/29 06:45:17;;;;;;;2.83;0.85;;;14.30;99.90;;;;;;4986260;28;20302;-62
2022/05/29 06:47:42;;;;;;;2.88;0.90;;;14.50;99.90;;;;;;4970200;28;20030;-61
2022/05/29 06:50:10;;;;;;;3.25;0.80;;;14.50;99.90;;;;;;5018639;28;20052;-61
2022/05/29 06:52:36;;;;;;;4.57;0.80;;;14.50;99.90;;;;;;5019372;28;20098;-61
2022/05/29 06:55:04;;;;;;;1.85;0.60;;;14.70;99.90;;;;;;5019286;28;20030;-61
2022/05/29 06:57:46;;;;;;;1.98;0.60;;;15.00;99.90;;;;;;5018522;28;20025;-63
2022/05/29 07:08:32;;;;;;;2.15;0.68;;;15.20;99.90;;;;;;5019134;28;20042;-62
2022/05/29 07:11:06;;;;;;;2.67;0.50;;;15.00;99.90;;;;;;5018211;28;20022;-61
2022/05/29 07:13:33;;;;;;;1.00;0.65;;;14.80;99.90;;;;;;5018963;28;20084;-62
2022/05/29 07:15:59;;;;;;;3.03;1.42;;;14.70;99.90;;;;;;5018673;28;20289;-62
2022/05/29 07:18:24;;;;;;;1.90;0.80;;;14.70;99.90;;;;;;5018847;28;20044;-63
2022/05/29 07:20:50;;;;;;;1.73;0.80;;;14.90;99.90;;;;;;5018011;28;20406;-61
2022/05/29 07:23:16;;;;;;;4.03;0.80;;;15.00;99.90;;;;;;5001683;28;20427;-61
2022/05/29 07:25:42;;;;;;;3.85;0.80;;;15.30;99.90;;;;;;5017848;28;20034;-60
2022/05/29 07:28:08;;;;;;;2.28;0.52;;;15.20;99.90;;;;;;5018572;28;20025;-61
2022/05/29 07:30:35;;;;;;;5.53;0.80;;;15.20;99.90;;;;;;5017868;28;20036;-61
2022/05/29 07:33:01;;;;;;;3.88;1.10;;;15.20;99.90;;;;;;5018584;28;20041;-60
2022/05/29 07:35:29;;;;;;;5.55;1.00;;;15.30;99.90;;;;;;4985318;28;20037;-61
2022/05/29 07:37:56;;;;;;;4.30;0.75;;;15.50;99.90;;;;;;5018556;28;20042;-62
2022/05/29 07:40:23;;;;;;;2.47;0.50;;;15.60;99.90;;;;;;5017748;28;20069;-62
2022/05/29 07:45:33;;;;;;;2.65;0.65;;;15.80;99.90;;;;;;5018358;28;20116;-60
2022/05/29 07:48:00;;;;;;;2.67;0.90;;;16.10;99.90;;;;;;5017558;28;20441;-60
2022/05/29 07:50:26;;;;;;;5.07;0.95;;;16.40;99.90;;;;;;5001096;28;20034;-61
2022/05/29 07:52:52;;;;;;;3.63;0.70;;;16.70;99.90;;;;;;5017626;28;20049;-61
2022/05/29 07:55:19;;;;;;;3.50;0.80;;;16.20;99.90;;;;;;5017442;28;20072;-60
2022/05/29 07:57:46;;;;;;;3.58;0.73;;;16.60;99.90;;;;;;5017322;28;20042;-61
2022/05/29 08:00:15;;;;;;;4.50;0.95;;;16.80;99.90;;;;;;5017283;28;20434;-61
2022/05/29 08:02:43;;;;;;;4.60;1.00;;;17.00;99.90;;;;;;5018223;28;20405;-60
2022/05/29 08:05:11;;;;;;;3.00;0.80;;;17.00;99.90;;;;;;5017246;28;20026;-60
2022/05/29 08:07:38;;;;;;;2.17;0.60;;;16.90;99.90;;;;;;5017135;28;20038;-62
2022/05/29 08:10:05;;;;;;;3.88;0.93;;;16.90;99.90;;;;;;5017794;28;20034;-60
2022/05/29 08:12:31;;;;;;;3.50;0.98;;;16.90;99.90;;;;;;5017872;28;20354;-62
2022/05/29 08:14:57;;;;;;;1.55;0.60;;;17.10;99.90;;;;;;5000939;28;20050;-61
2022/05/29 08:17:23;;;;;;;2.65;0.57;;;17.00;99.90;;;;;;5017756;28;20326;-59
2022/05/29 08:19:48;;;;;;;1.98;0.80;;;17.10;99.90;;;;;;5017701;28;20038;-62
2022/05/29 08:22:14;;;;;;;2.22;0.60;;;17.10;99.90;;;;;;5016854;28;20041;-61
2022/05/29 08:30:41;;;;;;;2.70;0.80;;;17.00;99.90;;;;;;5017855;28;20033;-62
2022/05/29 08:33:32;;;;;;;2.80;1.00;;;16.90;99.90;;;;;;5017587;28;20026;-62
2022/05/29 08:36:12;;;;;;;3.78;0.70;;;17.10;99.90;;;;;;4999844;28;20108;-61
2022/05/29 08:38:41;;;;;;;4.05;1.17;;;17.20;99.90;;;;;;5016729;28;20401;-62
2022/05/29 08:41:13;;;;;;;2.38;1.02;;;17.20;99.90;;;;;;5017317;28;20053;-61
2022/05/29 08:44:05;;;;;;;1.58;0.60;;;17.20;99.90;;;;;;5017436;28;20104;-60
2022/05/29 08:46:36;;;;;;;1.98;0.95;;;17.10;99.90;;;;;;5009782;28;20113;-61
2022/05/29 08:49:03;;;;;;;2.95;1.00;;;16.90;99.90;;;;;;5017340;28;20030;-62
2022/05/29 08:51:37;;;;;;;4.07;1.00;;;16.60;99.90;;;;;;5017682;28;20103;-62
2022/05/29 08:54:20;;;;;;;1.67;0.77;;;16.20;99.90;;;;;;5017279;28;20302;-64
2022/05/29 08:56:55;;;;;;;2.72;1.10;;;15.70;99.90;;;;;;5017603;28;20275;-67
2022/05/29 08:59:37;;;;;;;5.78;1.30;;;15.50;99.90;;;;;;5016962;28;20391;-61
2022/05/29 09:02:23;;;;;;;2.95;1.10;;;15.00;99.90;;;;;;5017123;28;20046;-64
2022/05/29 09:04:58;;;;;;;1.50;0.82;;;14.30;99.90;;;;;;5016813;28;20044;-65
2022/05/29 09:07:25;;;;;;;3.33;1.20;;;14.00;99.90;;;;;;5016132;28;20026;-63
2022/05/29 09:09:56;;;;;;;1.70;1.05;;;13.70;99.90;;;;;;4999903;28;20309;-65
2022/05/29 09:12:28;;;;;;;4.22;1.45;;;13.50;99.90;;;;;;5016361;28;20080;-64
2022/05/29 09:15:03;;;;;;;3.65;1.20;;;13.30;99.90;;;;;;5017262;28;20040;-64
2022/05/29 09:18:11;;;;;;;1.50;1.10;;;13.40;99.90;;;;;;5000264;28;20029;-64
2022/05/29 09:20:46;;;;;;;4.45;1.38;;;13.50;99.90;;;;;;4957268;29;20047;-64
2022/05/29 09:23:23;;;;;;;3.17;1.20;;;13.60;99.90;;;;;;5009137;28;20108;-65
2022/05/29 09:25:51;;;;;;;2.15;1.08;;;13.90;99.90;;;;;;5016960;28;20356;-65
2022/05/29 09:28:39;;;;;;;2.33;1.08;;;13.90;99.90;;;;;;5000204;28;20104;-64
2022/05/29 09:31:11;;;;;;;1.70;0.90;;;14.20;99.90;;;;;;5016966;28;20034;-64
2022/05/29 09:33:38;;;;;;;2.20;0.90;;;14.50;99.90;;;;;;4999886;28;20080;-65
2022/05/29 09:36:34;;;;;;;1.73;0.95;;;14.70;99.90;;;;;;5016170;28;20053;-65
2022/05/29 09:39:27;;;;;;;2.30;0.98;;;14.90;99.90;;;;;;5017966;28;20121;-65
2022/05/29 09:42:19;;;;;;;2.58;0.80;;;15.00;99.90;;;;;;5021117;28;20034;-65
2022/05/29 09:45:03;;;;;;;3.30;0.95;;;15.50;99.90;;;;;;5021098;28;20030;-66
2022/05/29 09:50:19;;;;;;;1.98;0.80;;;16.10;99.90;;;;;;5020701;28;20301;-64
2022/05/29 09:52:45;;;;;;;2.60;0.80;;;16.40;99.90;;;;;;5020506;28;20037;-65
2022/05/29 09:55:17;;;;;;;2.08;1.10;;;16.30;99.90;;;;;;5019634;28;20033;-63
2022/05/29 09:57:50;;;;;;;1.87;0.57;;;16.20;99.90;;;;;;5020377;28;20038;-66
2022/05/29 10:00:36;;;;;;;2.40;0.80;;;16.20;99.90;;;;;;5020114;28;20319;-66
2022/05/29 10:03:05;;;;;;;1.90;0.73;;;16.30;99.90;;;;;;5020390;28;20029;-67
2022/05/29 10:05:35;;;;;;;2.05;0.82;;;16.80;99.90;;;;;;5019459;28;20026;-68
2022/05/29 10:08:19;;;;;;;2.13;0.80;;;17.10;99.90;;;;;;5020057;28;20041;-68
2022/05/29 10:10:45;;;;;;;1.35;0.60;;;17.50;99.90;;;;;;5020169;28;20281;-67
2022/05/29 10:13:38;;;;;;;6.88;1.15;;;17.90;99.90;;;;;;5020001;28;20026;-65
2022/05/29 10:16:04;;;;;;;2.65;0.80;;;18.40;99.90;;;;;;5020142;28;20034;-64
2022/05/29 10:18:43;;;;;;;2.15;0.80;;;18.20;99.90;;;;;;5020317;28;20409;-65
2022/05/29 10:21:28;;;;;;;2.63;0.82;;;18.70;99.90;;;;;;5019262;28;20034;-66
2022/05/29 10:24:14;;;;;;;3.97;0.88;;;19.00;99.90;;;;;;5019210;28;20382;-65
2022/05/29 10:26:46;;;;;;;2.65;0.82;;;19.00;99.90;;;;;;5019762;28;20091;-66
2022/05/29 10:29:14;;;;;;;;;;;18.70;99.90;;;;;;5020430;28;20460;-67
2022/05/29 10:31:40;;;;;;;2.95;0.60;;;18.50;99.90;;;;;;5019840;28;19932;-62
2022/05/29 10:34:13;;;;;;;1.42;0.50;;;18.50;99.90;;;;;;5002668;28;20029;-61
2022/05/29 10:36:40;;;;;;;2.70;0.77;;;18.50;99.90;;;;;;5019102;28;20041;-63
2022/05/29 10:39:20;;;;;;;2.78;0.85;;;18.60;99.90;;;;;;5019240;28;20026;-63
2022/05/29 10:41:47;;;;;;;2.20;0.98;;;17.80;99.90;;;;;;5019692;28;20040;-63
2022/05/29 10:44:43;;;;;;;1.63;1.00;;;17.60;99.90;;;;;;5018840;28;20045;-63
2022/05/29 10:47:41;;;;;;;2.65;0.70;;;17.20;99.90;;;;;;5018789;28;20306;-63
2022/05/29 10:50:20;;;;;;;2.20;0.68;;;16.80;99.90;;;;;;5017902;28;20057;-65
2022/05/29 10:52:56;;;;;;;2.92;0.65;;;16.40;99.90;;;;;;5019512;28;20394;-66
2022/05/29 10:55:46;;;;;;;1.77;0.70;;;15.90;99.90;;;;;;5019402;28;20030;-66
2022/05/29 10:58:31;;;;;;;1.67;0.70;;;15.40;99.90;;;;;;5019473;28;20041;-64
2022/05/29 11:04:10;;;;;;;1.75;0.63;;;14.90;99.90;;;;;;5019849;28;20382;-66
2022/05/29 11:06:57;;;;;;;3.47;0.90;;;14.90;99.90;;;;;;5019017;28;20037;-65
2022/05/29 11:09:57;;;;;;;2.90;1.00;;;15.20;99.90;;;;;;5019280;28;20030;-65
2022/05/29 11:12:36;;;;;;;3.33;0.88;;;15.50;99.90;;;;;;5019181;28;20037;-66
2022/05/29 11:15:23;;;;;;;4.40;1.20;;;15.80;99.90;;;;;;5018292;28;20310;-65
2022/05/29 11:18:42;;;;;;;4.45;0.95;;;15.90;99.90;;;;;;5019260;28;20033;-65
2022/05/29 11:21:17;;;;;;;4.50;0.90;;;15.80;99.90;;;;;;5018878;28;20034;-66
2022/05/29 11:24:22;;;;;;;1.83;0.80;;;15.50;99.90;;;;;;5018132;28;20302;-66
2022/05/29 11:27:05;;;;;;;1.88;0.82;;;15.40;99.90;;;;;;4995668;28;20062;-66
2022/05/29 11:29:50;;;;;;;2.67;0.90;;;15.50;99.90;;;;;;5017946;28;20034;-65
2022/05/29 11:32:37;;;;;;;2.95;0.95;;;15.60;99.90;;;;;;5018763;28;20064;-65
2022/05/29 11:35:15;;;;;;;2.33;0.90;;;15.70;99.90;;;;;;5018688;28;20084;-66
2022/05/29 11:38:00;;;;;;;2.70;1.27;;;15.90;99.90;;;;;;5018608;28;20319;-65
2022/05/29 11:40:36;;;;;;;3.05;1.30;;;16.00;99.90;;;;;;5018617;28;20413;-65
2022/05/29 11:43:20;;;;;;;2.17;0.88;;;16.20;99.90;;;;;;5017847;28;20045;-65
2022/05/29 11:51:54;;;;;;;3.15;0.90;;;17.50;99.90;;;;;;5017590;28;20033;-64
2022/05/29 11:54:26;;;;;;;;;;;18.10;99.90;;;;;;5017981;28;20030;-66
2022/05/29 11:56:59;;;;;;;2.17;0.80;;;18.10;99.90;;;;;;5017954;28;19909;-66
2022/05/29 11:59:42;;;;;;;3.13;0.90;;;18.00;99.90;;;;;;5018802;28;20344;-65
2022/05/29 12:02:29;;;;;;;3.17;0.80;;;18.00;99.90;;;;;;5018261;28;20049;-66
2022/05/29 12:05:14;;;;;;;4.93;1.00;;;18.30;99.90;;;;;;5007708;28;20073;-67
2022/05/29 12:07:56;;;;;;;3.40;1.00;;;18.50;99.90;;;;;;5017899;28;20034;-67
2022/05/29 12:10:24;;;;;;;3.92;1.02;;;18.60;99.90;;;;;;5018051;28;20030;-67
2022/05/29 12:13:01;;;;;;;3.08;1.00;;;18.60;99.90;;;;;;5017174;28;20022;-67
2022/05/29 12:15:30;;;;;;;2.28;1.02;;;18.60;99.90;;;;;;5017246;28;20057;-67
2022/05/29 12:17:59;;;;;;;4.38;1.15;;;18.60;99.90;;;;;;5017177;28;20302;-65
2022/05/29 12:20:30;;;;;;;2.13;0.70;;;18.30;99.90;;;;;;5017541;28;20421;-66
2022/05/29 12:23:01;;;;;;;5.35;0.80;;;18.10;99.90;;;;;;5017950;28;20453;-64
2022/05/29 12:25:30;;;;;;;3.00;0.70;;;18.00;99.90;;;;;;5017050;28;20109;-64
2022/05/29 12:27:58;;;;;;;1.63;0.60;;;17.80;99.90;;;;;;5017494;28;20069;-65
2022/05/29 12:30:29;;;;;;;3.80;0.90;;;17.60;99.90;;;;;;5016989;28;20034;-66
2022/05/29 12:32:55;;;;;;;3.10;0.90;;;17.10;99.90;;;;;;5016983;28;20037;-62
2022/05/29 12:35:36;;;;;;;2.00;0.80;;;16.90;99.90;;;;;;5017606;28;20319;-65
2022/05/29 12:38:04;;;;;;;2.17;0.80;;;16.60;99.90;;;;;;5017708;28;20287;-63
2022/05/29 12:41:04;;;;;;;1.95;0.70;;;16.40;99.90;;;;;;5016680;28;20084;-64
2022/05/29 12:44:03;;;;;;;1.75;0.70;;;16.40;99.90;;;;;;5017479;28;20279;-66
2022/05/29 12:46:35;;;;;;;1.73;0.77;;;16.40;99.90;;;;;;5016782;28;20034;-64
2022/05/29 12:49:01;;;;;;;2.17;0.75;;;16.90;99.90;;;;;;5017352;28;20018;-66
2022/05/29 12:52:06;;;;;;;1.52;0.80;;;17.30;99.90;;;;;;5016569;28;20026;-66
2022/05/29 12:55:14;;;;;;;4.13;0.82;;;17.90;99.90;;;;;;5017385;28;20294;-66
2022/05/29 12:58:03;;;;;;;1.08;0.50;;;18.70;99.90;;;;;;5016528;28;20037;-64
2022/05/29 13:00:46;;;;;;;1.88;0.65;;;19.40;99.90;;;;;;5017140;28;20057;-66
2022/05/29 13:03:11;;;;;;;;;;;20.10;99.90;;;;;;5017628;28;20302;-65
2022/05/29 13:06:04;;;;;;;1.25;0.60;;;21.70;99.90;;;;;;5017244;28;19909;-64
2022/05/29 13:08:29;;;;;;;1.10;0.40;;;22.70;99.90;;;;;;5017108;28;20029;-65
2022/05/29 13:10:57;;;;;;;1.35;0.50;;;23.80;99.90;;;;;;5017111;28;20026;-65
2022/05/29 13:13:38;;;;;;;1.42;0.50;;;23.80;99.90;;;;;;5019418;28;20025;-67
2022/05/29 13:16:25;;;;;;;2.10;0.60;;;22.70;99.90;;;;;;5023653;28;20042;-65
2022/05/29 13:19:13;;;;;;;1.67;0.43;;;21.20;99.90;;;;;;5023132;28;20405;-64
2022/05/29 13:22:02;;;;;;;1.10;0.40;;;20.40;99.90;;;;;;5023615;28;20083;-65
2022/05/29 13:24:36;;;;;;;1.02;0.50;;;19.70;99.90;;;;;;5022869;28;20049;-65
2022/05/29 13:27:16;;;;;;;0.80;0.40;;;18.80;99.90;;;;;;5023546;28;20080;-63
2022/05/29 13:29:43;;;;;;;1.08;0.50;;;18.00;99.90;;;;;;5024055;28;20068;-64
2022/05/29 13:32:17;;;;;;;1.50;0.50;;;17.70;99.90;;;;;;5023655;28;20044;-60
2022/05/29 13:34:44;;;;;;;4.05;0.52;;;17.50;99.90;;;;;;5023080;28;20048;-62
2022/05/29 13:37:32;;;;;;;3.38;0.70;;;17.40;99.90;;;;;;5022868;28;20394;-62
2022/05/29 13:40:20;;;;;;;2.15;0.80;;;17.10;99.90;;;;;;5022969;28;20042;-64
2022/05/29 13:42:49;;;;;;;1.17;0.45;;;16.80;99.90;;;;;;5023427;28;20153;-63
2022/05/29 13:45:24;;;;;;;1.70;0.60;;;16.60;99.90;;;;;;5022676;28;20088;-62
2022/05/29 13:48:04;;;;;;;0.90;0.50;;;16.50;99.90;;;;;;5023264;28;20030;-62
2022/05/29 13:51:08;;;;;;;3.63;0.60;;;16.10;99.90;;;;;;5022774;28;20045;-63
2022/05/29 13:54:05;;;;;;;2.63;0.63;;;15.70;99.90;;;;;;5010398;28;20366;-63
2022/05/29 13:56:53;;;;;;;1.90;0.80;;;15.40;99.90;;;;;;5023358;28;20064;-64
2022/05/29 14:05:37;;;;;;;2.78;0.77;;;15.00;99.90;;;;;;5021204;28;20092;-63